Time;durP1;ratioP1;P1;durP2;ratioP2;P2;SDS_P1;SDS_P2;PMS_P1;PMS_P2;Temp;Humidity;BMP_temperature;BMP_pressure;BME280_temperature;BME280_humidity;BME280_pressure;Samples;Min_cycle;Max_cycle;Signal;HPM_P1;HPM_P2
2024/03/31 00:02:15;;;;;;;12.57;4.38;;;;;;;;;;5015077;28;20040;-81
2024/03/31 00:04:41;;;;;;;20.65;5.20;;;;;;;;;;5034028;28;20036;-80
2024/03/31 00:07:07;;;;;;;26.38;6.00;;;;;;;;;;5058332;28;20032;-81
2024/03/31 00:09:34;;;;;;;18.52;5.03;;;;;;;;;;5056123;28;20030;-81
2024/03/31 00:12:00;;;;;;;15.13;4.50;;;;;;;;;;5038594;28;20076;-82
2024/03/31 00:14:26;;;;;;;21.10;5.80;;;;;;;;;;5047784;28;20029;-80
2024/03/31 00:16:52;;;;;;;29.08;5.95;;;;;;;;;;5058478;28;20049;-81
2024/03/31 00:19:18;;;;;;;19.80;5.85;;;;;;;;;;5039291;28;20041;-81
2024/03/31 00:21:44;;;;;;;14.52;5.35;;;;;;;;;;5019548;28;20041;-80
2024/03/31 00:24:10;;;;;;;16.52;4.75;;;;;;;;;;5036451;28;20100;-81
2024/03/31 00:26:36;;;;;;;14.05;4.50;;;;;;;;;;5028460;28;20018;-80
2024/03/31 00:29:02;;;;;;;12.27;4.53;;;;;;;;;;5030364;28;20025;-80
2024/03/31 00:31:28;;;;;;;14.23;5.25;;;;;;;;;;5036352;28;20036;-80
2024/03/31 00:33:54;;;;;;;11.88;4.72;;;;;;;;;;5012645;28;20140;-81
2024/03/31 00:36:20;;;;;;;12.45;4.68;;;;;;;;;;5025901;28;20029;-80
2024/03/31 00:38:47;;;;;;;9.93;3.53;;;;;;;;;;5038703;28;20013;-81
2024/03/31 00:41:13;;;;;;;10.35;4.03;;;;;;;;;;5021029;28;20030;-81
2024/03/31 00:43:39;;;;;;;8.80;3.70;;;;;;;;;;5013723;28;20029;-80
2024/03/31 00:46:05;;;;;;;12.30;4.93;;;;;;;;;;5038355;28;20021;-80
2024/03/31 00:48:31;;;;;;;8.80;3.55;;;;;;;;;;5035466;28;20020;-80
2024/03/31 00:50:57;;;;;;;11.85;3.15;;;;;;;;;;5020699;28;20025;-81
2024/03/31 00:53:23;;;;;;;5.18;2.63;;;;;;;;;;5015077;28;20025;-80
2024/03/31 00:55:49;;;;;;;7.85;3.30;;;;;;;;;;5036113;28;20387;-80
2024/03/31 00:58:16;;;;;;;8.02;3.22;;;;;;;;;;5036561;28;20032;-80
2024/03/31 01:00:42;;;;;;;9.30;3.90;;;;;;;;;;5035859;28;20052;-80
2024/03/31 01:03:08;;;;;;;15.75;4.13;;;;;;;;;;5029565;28;20025;-80
2024/03/31 01:05:34;;;;;;;19.65;5.78;;;;;;;;;;5019472;28;20076;-79
2024/03/31 01:08:01;;;;;;;21.48;4.75;;;;;;;;;;5037175;28;20322;-79
2024/03/31 01:10:27;;;;;;;12.02;4.20;;;;;;;;;;5036818;28;20033;-80
2024/03/31 01:12:53;;;;;;;15.65;5.35;;;;;;;;;;5017731;28;20040;-81
2024/03/31 01:15:19;;;;;;;9.18;3.70;;;;;;;;;;5012255;28;20024;-79
2024/03/31 01:17:46;;;;;;;13.57;3.80;;;;;;;;;;5040497;28;20032;-80
2024/03/31 01:20:12;;;;;;;12.70;3.97;;;;;;;;;;5031305;28;20095;-79
2024/03/31 01:22:39;;;;;;;12.90;4.22;;;;;;;;;;5026370;28;20085;-79
2024/03/31 01:25:06;;;;;;;19.52;4.85;;;;;;;;;;5029037;28;20032;-79
2024/03/31 01:27:32;;;;;;;24.33;6.88;;;;;;;;;;5026487;28;20017;-79
2024/03/31 01:29:58;;;;;;;30.85;7.47;;;;;;;;;;5032200;28;20074;-79
2024/03/31 01:32:24;;;;;;;51.22;11.27;;;;;;;;;;5027686;28;20025;-79
2024/03/31 01:34:50;;;;;;;42.70;10.35;;;;;;;;;;5042347;28;20029;-78
2024/03/31 01:37:16;;;;;;;33.95;9.88;;;;;;;;;;5043456;28;20025;-79
2024/03/31 01:39:42;;;;;;;50.83;10.68;;;;;;;;;;5018928;28;20452;-79
2024/03/31 01:42:08;;;;;;;38.33;8.90;;;;;;;;;;5040244;28;20036;-79
2024/03/31 01:44:34;;;;;;;34.55;9.35;;;;;;;;;;5041252;28;20037;-79
2024/03/31 01:47:00;;;;;;;28.95;7.75;;;;;;;;;;5046443;28;20033;-78
2024/03/31 01:49:26;;;;;;;19.73;5.38;;;;;;;;;;5033501;28;20029;-78
2024/03/31 01:51:52;;;;;;;37.50;9.57;;;;;;;;;;5053618;28;20018;-79
2024/03/31 01:54:19;;;;;;;35.35;7.65;;;;;;;;;;5055311;28;20037;-80
2024/03/31 01:56:53;;;;;;;38.65;6.90;;;;;;;;;;5058422;28;20032;-81
2024/03/31 01:59:19;;;;;;;35.67;5.45;;;;;;;;;;5055411;28;20030;-79
2024/03/31 02:01:46;;;;;;;30.88;5.22;;;;;;;;;;5055655;28;20052;-79
2024/03/31 02:04:12;;;;;;;18.75;5.03;;;;;;;;;;5053120;28;20024;-81
2024/03/31 02:06:38;;;;;;;16.48;4.22;;;;;;;;;;5052698;28;20037;-81
2024/03/31 02:09:05;;;;;;;24.48;4.25;;;;;;;;;;5042273;28;20037;-80
2024/03/31 02:11:31;;;;;;;18.08;4.28;;;;;;;;;;5037903;28;20021;-81
2024/03/31 02:13:57;;;;;;;18.33;4.32;;;;;;;;;;5025077;28;20056;-79
2024/03/31 02:16:23;;;;;;;24.85;4.22;;;;;;;;;;5032071;28;20021;-79
2024/03/31 02:18:49;;;;;;;17.35;3.80;;;;;;;;;;5044466;28;20044;-76
2024/03/31 02:21:15;;;;;;;28.02;4.50;;;;;;;;;;5044192;28;20041;-79
2024/03/31 02:23:41;;;;;;;18.40;3.25;;;;;;;;;;5038321;28;20032;-80
2024/03/31 02:26:09;;;;;;;28.00;4.50;;;;;;;;;;5036339;28;20128;-80
2024/03/31 02:28:36;;;;;;;30.50;4.95;;;;;;;;;;5034497;28;20435;-80
2024/03/31 02:31:02;;;;;;;19.63;3.70;;;;;;;;;;5031197;28;20025;-80
2024/03/31 02:33:28;;;;;;;28.90;4.45;;;;;;;;;;5035950;28;20663;-80
2024/03/31 02:35:54;;;;;;;24.88;3.38;;;;;;;;;;5035491;28;20109;-81
2024/03/31 02:38:20;;;;;;;13.50;2.63;;;;;;;;;;5036165;28;20082;-80
2024/03/31 02:40:46;;;;;;;8.68;2.42;;;;;;;;;;5036578;28;20025;-79
2024/03/31 02:43:12;;;;;;;23.48;4.47;;;;;;;;;;5035925;28;20033;-81
2024/03/31 02:45:39;;;;;;;25.58;3.72;;;;;;;;;;5024885;28;20048;-81
2024/03/31 02:48:05;;;;;;;19.02;2.88;;;;;;;;;;5030095;28;20025;-81
2024/03/31 02:50:31;;;;;;;21.30;3.53;;;;;;;;;;5035956;28;20019;-80
2024/03/31 02:52:57;;;;;;;13.23;3.22;;;;;;;;;;5027121;28;20021;-81
2024/03/31 02:55:23;;;;;;;24.13;3.30;;;;;;;;;;5034150;28;20033;-79
2024/03/31 02:57:49;;;;;;;9.95;2.47;;;;;;;;;;5011863;28;20116;-79
2024/03/31 03:00:16;;;;;;;10.25;2.80;;;;;;;;;;5033347;28;20074;-80
2024/03/31 03:02:43;;;;;;;15.15;3.78;;;;;;;;;;5032898;28;20025;-79
2024/03/31 03:05:09;;;;;;;12.55;2.30;;;;;;;;;;5032729;28;20032;-79
2024/03/31 03:07:35;;;;;;;9.77;1.80;;;;;;;;;;5016959;28;20022;-80
2024/03/31 03:10:01;;;;;;;5.90;1.73;;;;;;;;;;5017659;28;20859;-80
2024/03/31 03:12:27;;;;;;;3.72;1.30;;;;;;;;;;5034710;28;20044;-81
2024/03/31 03:14:54;;;;;;;3.28;1.38;;;;;;;;;;5000967;28;20033;-79
2024/03/31 03:17:20;;;;;;;4.03;1.30;;;;;;;;;;5023933;28;20080;-79
2024/03/31 03:19:47;;;;;;;4.05;1.27;;;;;;;;;;5034695;28;20029;-80
2024/03/31 03:22:14;;;;;;;4.95;1.25;;;;;;;;;;5035139;28;20041;-79
2024/03/31 03:24:40;;;;;;;1.35;0.98;;;;;;;;;;5037316;28;20033;-80
2024/03/31 03:27:06;;;;;;;3.47;1.00;;;;;;;;;;5038859;28;20063;-80
2024/03/31 03:29:32;;;;;;;2.83;1.00;;;;;;;;;;5040741;28;20018;-80
2024/03/31 03:31:59;;;;;;;3.50;0.80;;;;;;;;;;5038319;28;20029;-80
2024/03/31 03:34:25;;;;;;;2.75;0.85;;;;;;;;;;5020304;28;20022;-80
2024/03/31 03:36:51;;;;;;;4.10;1.00;;;;;;;;;;5040791;28;20487;-81
2024/03/31 03:39:17;;;;;;;4.20;0.82;;;;;;;;;;5038060;28;20032;-79
2024/03/31 03:41:44;;;;;;;1.45;0.70;;;;;;;;;;5034887;28;20033;-81
2024/03/31 03:44:10;;;;;;;3.20;1.10;;;;;;;;;;5041950;28;20111;-80
2024/03/31 03:46:36;;;;;;;2.70;1.40;;;;;;;;;;5044287;28;20021;-81
2024/03/31 03:49:02;;;;;;;1.60;0.55;;;;;;;;;;5027227;28;20077;-80
2024/03/31 03:51:28;;;;;;;0.60;0.60;;;;;;;;;;5040168;28;20108;-80
2024/03/31 03:53:54;;;;;;;2.88;0.73;;;;;;;;;;5046125;28;20010;-80
2024/03/31 03:56:20;;;;;;;0.70;0.60;;;;;;;;;;5033444;28;20025;-80
2024/03/31 03:58:47;;;;;;;1.25;0.60;;;;;;;;;;5045846;28;20021;-80
2024/03/31 04:01:13;;;;;;;1.40;0.50;;;;;;;;;;5046164;28;20033;-78
2024/03/31 04:03:39;;;;;;;2.15;0.70;;;;;;;;;;5031697;28;20033;-79
2024/03/31 04:06:05;;;;;;;2.10;0.68;;;;;;;;;;5058678;28;20036;-80
2024/03/31 04:08:31;;;;;;;0.40;0.38;;;;;;;;;;5037656;28;20025;-79
2024/03/31 04:10:58;;;;;;;1.30;0.75;;;;;;;;;;5048425;28;20030;-80
2024/03/31 04:13:24;;;;;;;1.10;0.70;;;;;;;;;;5043528;28;20036;-80
2024/03/31 04:15:59;;;;;;;1.05;0.47;;;;;;;;;;5042673;28;20030;-79
2024/03/31 04:18:25;;;;;;;0.68;0.30;;;;;;;;;;5042617;28;20104;-80
2024/03/31 04:20:51;;;;;;;0.82;0.50;;;;;;;;;;5004068;28;20026;-80
2024/03/31 04:23:17;;;;;;;2.17;0.50;;;;;;;;;;5021192;28;20216;-80
2024/03/31 04:25:43;;;;;;;1.88;0.68;;;;;;;;;;5049756;28;20089;-80
2024/03/31 04:28:10;;;;;;;0.47;0.47;;;;;;;;;;5046699;28;20081;-80
2024/03/31 04:30:40;;;;;;;0.95;0.63;;;;;;;;;;5012652;28;20052;-79
2024/03/31 04:33:06;;;;;;;1.23;0.82;;;;;;;;;;5023552;28;20393;-80
2024/03/31 04:35:39;;;;;;;1.00;0.50;;;;;;;;;;5041748;28;20025;-79
2024/03/31 04:38:05;;;;;;;1.95;0.55;;;;;;;;;;5039583;28;20412;-80
2024/03/31 04:40:31;;;;;;;0.45;0.40;;;;;;;;;;5023447;28;20108;-79
2024/03/31 04:42:57;;;;;;;0.68;0.40;;;;;;;;;;5041922;28;20647;-79
2024/03/31 04:45:24;;;;;;;1.75;0.35;;;;;;;;;;5041565;28;20022;-80
2024/03/31 04:47:50;;;;;;;3.28;0.40;;;;;;;;;;5041814;28;20384;-79
2024/03/31 04:50:16;;;;;;;0.70;0.50;;;;;;;;;;5035774;28;20025;-78
2024/03/31 04:52:42;;;;;;;0.75;0.40;;;;;;;;;;5049553;28;20028;-81
2024/03/31 04:55:08;;;;;;;0.50;0.30;;;;;;;;;;5040926;28;20026;-80
2024/03/31 04:57:35;;;;;;;0.63;0.55;;;;;;;;;;5041595;28;20033;-80
2024/03/31 05:00:01;;;;;;;0.20;0.20;;;;;;;;;;5041723;28;20506;-80
2024/03/31 05:02:27;;;;;;;0.20;0.20;;;;;;;;;;5047320;28;20040;-80
2024/03/31 05:04:53;;;;;;;0.55;0.40;;;;;;;;;;5059080;28;20021;-79
2024/03/31 05:07:19;;;;;;;1.58;0.60;;;;;;;;;;5059128;28;20006;-79
2024/03/31 05:09:45;;;;;;;1.05;0.50;;;;;;;;;;5059810;28;20028;-79
2024/03/31 05:12:11;;;;;;;0.55;0.38;;;;;;;;;;5059638;28;20036;-79
2024/03/31 05:14:37;;;;;;;0.45;0.30;;;;;;;;;;5042376;28;20041;-79
2024/03/31 05:17:04;;;;;;;1.00;0.40;;;;;;;;;;5042088;28;20029;-79
2024/03/31 05:19:30;;;;;;;0.15;0.15;;;;;;;;;;5058938;28;20053;-79
2024/03/31 05:21:56;;;;;;;0.55;0.40;;;;;;;;;;5058502;28;20032;-79
2024/03/31 05:24:23;;;;;;;0.85;0.43;;;;;;;;;;5049399;28;20013;-80
2024/03/31 05:26:50;;;;;;;1.05;0.50;;;;;;;;;;5024481;28;20057;-80
2024/03/31 05:29:18;;;;;;;0.50;0.38;;;;;;;;;;5037794;28;20021;-77
2024/03/31 05:31:44;;;;;;;1.00;0.55;;;;;;;;;;5036996;28;20034;-79
2024/03/31 05:34:10;;;;;;;4.13;0.88;;;;;;;;;;5029142;28;20041;-79
2024/03/31 05:36:36;;;;;;;1.55;0.75;;;;;;;;;;5017725;28;20029;-80
2024/03/31 05:39:02;;;;;;;2.35;1.13;;;;;;;;;;5035708;28;20064;-79
2024/03/31 05:41:28;;;;;;;3.35;1.02;;;;;;;;;;5035612;28;20412;-79
2024/03/31 05:43:54;;;;;;;2.50;0.85;;;;;;;;;;5035200;28;20049;-79
2024/03/31 05:46:21;;;;;;;1.65;0.55;;;;;;;;;;5026886;28;20089;-79
2024/03/31 05:48:47;;;;;;;2.03;0.55;;;;;;;;;;5027071;28;20025;-78
2024/03/31 05:51:14;;;;;;;3.53;1.05;;;;;;;;;;5010522;28;20030;-79
2024/03/31 05:53:40;;;;;;;2.70;1.15;;;;;;;;;;5032316;28;20067;-80
2024/03/31 05:56:06;;;;;;;0.70;0.70;;;;;;;;;;5013521;28;20047;-78
2024/03/31 05:58:32;;;;;;;3.92;1.70;;;;;;;;;;5042781;28;20013;-80
2024/03/31 06:00:59;;;;;;;3.47;0.70;;;;;;;;;;5047130;28;20053;-79
2024/03/31 06:03:25;;;;;;;3.50;1.08;;;;;;;;;;5034396;28;20431;-76
2024/03/31 06:05:51;;;;;;;1.65;0.73;;;;;;;;;;5040216;28;20017;-81
2024/03/31 06:08:17;;;;;;;1.77;0.57;;;;;;;;;;5039114;28;20032;-80
2024/03/31 06:10:43;;;;;;;0.98;0.60;;;;;;;;;;5033647;28;20028;-81
2024/03/31 06:13:09;;;;;;;1.25;0.80;;;;;;;;;;5034681;28;20402;-80
2024/03/31 06:15:37;;;;;;;1.63;0.82;;;;;;;;;;5037478;28;20024;-80
2024/03/31 06:18:03;;;;;;;2.03;1.15;;;;;;;;;;5024188;28;20066;-80
2024/03/31 06:20:30;;;;;;;1.90;0.85;;;;;;;;;;5021726;28;20096;-82
2024/03/31 06:22:56;;;;;;;2.15;0.88;;;;;;;;;;5032203;28;20030;-80
2024/03/31 06:25:22;;;;;;;2.85;1.08;;;;;;;;;;5026452;28;20025;-81
2024/03/31 06:27:49;;;;;;;1.35;0.80;;;;;;;;;;5030012;28;20018;-80
2024/03/31 06:30:15;;;;;;;2.20;0.82;;;;;;;;;;5024388;28;20018;-80
2024/03/31 06:32:41;;;;;;;1.35;0.70;;;;;;;;;;5027440;28;20101;-80
2024/03/31 06:35:08;;;;;;;2.45;0.85;;;;;;;;;;5027688;28;20112;-80
2024/03/31 06:37:34;;;;;;;2.58;1.00;;;;;;;;;;5011443;28;20053;-80
2024/03/31 06:40:00;;;;;;;1.40;0.68;;;;;;;;;;5022335;28;20061;-80
2024/03/31 06:42:26;;;;;;;1.55;0.80;;;;;;;;;;5020647;28;20033;-81
2024/03/31 06:44:52;;;;;;;1.73;0.70;;;;;;;;;;5016503;28;20025;-80
2024/03/31 06:47:18;;;;;;;2.35;0.70;;;;;;;;;;5026338;28;20148;-80
2024/03/31 06:49:45;;;;;;;1.80;0.60;;;;;;;;;;5029856;28;20026;-80
2024/03/31 06:52:11;;;;;;;1.10;0.60;;;;;;;;;;5031772;28;20121;-79
2024/03/31 06:54:37;;;;;;;1.63;0.60;;;;;;;;;;5025302;28;20101;-79
2024/03/31 06:57:04;;;;;;;1.48;0.60;;;;;;;;;;5031124;28;20025;-80
2024/03/31 06:59:30;;;;;;;0.85;0.40;;;;;;;;;;5010763;28;20030;-81
2024/03/31 07:01:56;;;;;;;0.93;0.55;;;;;;;;;;5036142;28;20026;-79
2024/03/31 07:04:22;;;;;;;1.67;0.63;;;;;;;;;;5038076;28;20021;-79
2024/03/31 07:06:49;;;;;;;1.20;0.60;;;;;;;;;;5037953;28;20056;-79
2024/03/31 07:09:16;;;;;;;0.95;0.40;;;;;;;;;;5018662;28;20037;-80
2024/03/31 07:11:42;;;;;;;0.80;0.60;;;;;;;;;;5028643;28;20085;-80
2024/03/31 07:14:08;;;;;;;0.50;0.40;;;;;;;;;;5033635;28;20033;-81
2024/03/31 07:16:34;;;;;;;0.68;0.40;;;;;;;;;;5032539;28;20033;-81
2024/03/31 07:19:00;;;;;;;0.30;0.30;;;;;;;;;;5034777;28;20389;-78
2024/03/31 07:21:26;;;;;;;0.73;0.40;;;;;;;;;;5040674;28;20367;-79
2024/03/31 07:23:52;;;;;;;1.13;0.60;;;;;;;;;;5045003;28;20030;-79
2024/03/31 07:26:19;;;;;;;0.90;0.40;;;;;;;;;;5036001;28;20014;-80
2024/03/31 07:28:45;;;;;;;0.70;0.70;;;;;;;;;;5037791;28;20486;-79
2024/03/31 07:31:11;;;;;;;0.40;0.40;;;;;;;;;;5017562;28;20041;-80
2024/03/31 07:33:37;;;;;;;1.10;0.60;;;;;;;;;;5009533;28;20026;-80
2024/03/31 07:36:03;;;;;;;3.13;0.52;;;;;;;;;;5044074;28;20043;-79
2024/03/31 07:38:29;;;;;;;2.38;0.60;;;;;;;;;;5038975;28;20071;-79
2024/03/31 07:40:55;;;;;;;1.10;0.70;;;;;;;;;;5023246;28;20034;-78
2024/03/31 07:43:22;;;;;;;1.05;0.50;;;;;;;;;;5039041;28;20029;-79
2024/03/31 07:45:48;;;;;;;1.00;0.50;;;;;;;;;;5043972;28;20025;-79
2024/03/31 07:48:14;;;;;;;1.52;0.50;;;;;;;;;;5034761;28;20069;-79
2024/03/31 07:50:40;;;;;;;0.95;0.68;;;;;;;;;;5052950;28;20032;-79
2024/03/31 07:53:07;;;;;;;1.10;0.60;;;;;;;;;;5030544;28;20014;-79
2024/03/31 07:55:33;;;;;;;0.73;0.50;;;;;;;;;;5030057;28;20368;-78
2024/03/31 07:57:59;;;;;;;0.75;0.40;;;;;;;;;;5009947;28;20102;-79
2024/03/31 08:00:25;;;;;;;1.58;0.50;;;;;;;;;;5032473;28;20022;-80
2024/03/31 08:02:51;;;;;;;1.17;0.50;;;;;;;;;;5039590;28;20065;-79
2024/03/31 08:05:18;;;;;;;0.77;0.50;;;;;;;;;;5049405;28;20026;-79
2024/03/31 08:07:44;;;;;;;0.50;0.40;;;;;;;;;;5018705;28;20028;-80
2024/03/31 08:10:10;;;;;;;1.23;0.50;;;;;;;;;;5031697;28;20069;-79
2024/03/31 08:12:37;;;;;;;0.30;0.30;;;;;;;;;;5054149;28;20029;-79
2024/03/31 08:15:03;;;;;;;0.50;0.30;;;;;;;;;;5037358;28;20033;-79
2024/03/31 08:17:29;;;;;;;0.75;0.45;;;;;;;;;;5028295;28;20056;-79
2024/03/31 08:19:56;;;;;;;0.80;0.50;;;;;;;;;;5047696;28;20018;-80
2024/03/31 08:22:22;;;;;;;0.47;0.45;;;;;;;;;;5048033;28;20041;-80
2024/03/31 08:24:48;;;;;;;0.65;0.52;;;;;;;;;;5037092;28;20029;-80
2024/03/31 08:27:15;;;;;;;2.00;0.60;;;;;;;;;;5044523;28;20097;-80
2024/03/31 08:29:41;;;;;;;0.57;0.50;;;;;;;;;;5041535;28;20033;-80
2024/03/31 08:32:07;;;;;;;1.65;0.50;;;;;;;;;;5027469;28;20018;-79
2024/03/31 08:34:36;;;;;;;4.75;0.45;;;;;;;;;;5040101;28;20029;-80
2024/03/31 08:37:02;;;;;;;1.70;0.47;;;;;;;;;;5040240;28;20131;-79
2024/03/31 08:39:28;;;;;;;0.50;0.40;;;;;;;;;;5040099;28;20376;-79
2024/03/31 08:42:07;;;;;;;0.77;0.40;;;;;;;;;;5030893;28;20392;-79
2024/03/31 08:44:33;;;;;;;1.27;0.60;;;;;;;;;;5039757;28;20458;-79
2024/03/31 08:46:59;;;;;;;2.78;0.77;;;;;;;;;;5027044;28;20040;-79
2024/03/31 08:49:26;;;;;;;6.43;1.00;;;;;;;;;;5039975;28;20017;-78
2024/03/31 08:51:52;;;;;;;0.73;0.40;;;;;;;;;;5050578;28;20040;-78
2024/03/31 08:54:18;;;;;;;0.77;0.50;;;;;;;;;;5045769;28;20040;-79
2024/03/31 08:56:44;;;;;;;1.73;0.73;;;;;;;;;;5022781;28;20140;-80
2024/03/31 08:59:11;;;;;;;3.00;1.00;;;;;;;;;;5041331;28;20018;-80
2024/03/31 09:01:37;;;;;;;1.52;0.70;;;;;;;;;;5037065;28;20041;-80
2024/03/31 09:04:04;;;;;;;1.88;0.70;;;;;;;;;;5043441;28;20017;-80
2024/03/31 09:06:30;;;;;;;3.38;1.25;;;;;;;;;;5042062;28;20021;-80
2024/03/31 09:09:06;;;;;;;2.85;1.00;;;;;;;;;;5032329;28;20021;-80
2024/03/31 09:11:32;;;;;;;2.47;1.02;;;;;;;;;;5049966;28;20025;-79
2024/03/31 09:13:59;;;;;;;3.65;1.00;;;;;;;;;;5036876;28;20507;-80
2024/03/31 09:16:25;;;;;;;2.25;1.10;;;;;;;;;;5040883;28;20029;-80
2024/03/31 09:18:51;;;;;;;2.38;1.17;;;;;;;;;;5020798;28;20428;-80
2024/03/31 09:21:18;;;;;;;1.17;0.80;;;;;;;;;;5007413;28;20030;-79
2024/03/31 09:23:44;;;;;;;1.10;0.95;;;;;;;;;;5037622;28;20044;-80
2024/03/31 09:26:10;;;;;;;7.82;1.63;;;;;;;;;;5016893;28;20542;-79
2024/03/31 09:28:36;;;;;;;9.50;1.95;;;;;;;;;;5031587;28;20022;-79
2024/03/31 09:31:03;;;;;;;7.95;2.08;;;;;;;;;;5032570;28;20028;-79
2024/03/31 09:33:33;;;;;;;9.25;2.13;;;;;;;;;;5039828;28;20029;-80
2024/03/31 09:36:01;;;;;;;5.28;1.50;;;;;;;;;;5026348;28;20095;-80
2024/03/31 09:38:28;;;;;;;7.18;1.73;;;;;;;;;;5039136;28;20021;-79
2024/03/31 09:40:54;;;;;;;3.42;1.33;;;;;;;;;;5038722;28;20033;-79
2024/03/31 09:43:21;;;;;;;3.15;1.48;;;;;;;;;;5031042;28;20026;-79
2024/03/31 09:45:47;;;;;;;2.95;1.40;;;;;;;;;;5020275;28;20512;-80
2024/03/31 09:48:18;;;;;;;6.30;1.80;;;;;;;;;;5032327;28;20052;-79
2024/03/31 09:51:04;;;;;;;9.50;2.50;;;;;;;;;;5012907;28;20022;-80
2024/03/31 09:53:30;;;;;;;7.10;1.92;;;;;;;;;;5029306;28;20022;-79
2024/03/31 09:56:02;;;;;;;4.97;1.48;;;;;;;;;;5039126;28;20552;-80
2024/03/31 09:58:31;;;;;;;6.05;1.73;;;;;;;;;;5031915;28;20379;-79
2024/03/31 10:00:57;;;;;;;4.80;2.35;;;;;;;;;;5040445;28;20018;-79
2024/03/31 10:03:26;;;;;;;5.07;1.88;;;;;;;;;;5038227;28;20033;-79
2024/03/31 10:05:53;;;;;;;3.72;1.48;;;;;;;;;;5045197;28;20072;-80
2024/03/31 10:08:19;;;;;;;6.43;1.45;;;;;;;;;;5057494;28;20100;-78
2024/03/31 10:10:46;;;;;;;6.18;1.77;;;;;;;;;;5046722;28;20017;-79
2024/03/31 10:13:13;;;;;;;5.05;1.63;;;;;;;;;;5045230;28;20022;-79
2024/03/31 10:15:40;;;;;;;9.63;2.58;;;;;;;;;;5037039;28;20016;-79
2024/03/31 10:18:07;;;;;;;20.05;3.70;;;;;;;;;;5048929;28;20013;-79
2024/03/31 10:20:33;;;;;;;12.65;3.25;;;;;;;;;;5033496;28;20052;-79
2024/03/31 10:22:59;;;;;;;10.07;3.00;;;;;;;;;;5042154;28;20128;-79
2024/03/31 10:25:29;;;;;;;8.60;2.25;;;;;;;;;;5029070;28;20079;-79
2024/03/31 10:27:56;;;;;;;9.98;2.13;;;;;;;;;;5035937;28;20045;-79
2024/03/31 10:30:24;;;;;;;20.33;3.92;;;;;;;;;;5050886;28;20022;-79
2024/03/31 10:32:50;;;;;;;19.25;3.47;;;;;;;;;;5033606;28;20109;-80
2024/03/31 10:35:16;;;;;;;11.13;3.15;;;;;;;;;;5024339;28;20112;-79
2024/03/31 10:37:43;;;;;;;9.80;2.60;;;;;;;;;;5023104;28;20504;-80
2024/03/31 10:40:12;;;;;;;18.35;2.75;;;;;;;;;;5030756;28;20029;-79
2024/03/31 10:42:38;;;;;;;12.52;3.08;;;;;;;;;;5037263;28;20113;-79
2024/03/31 10:45:04;;;;;;;12.80;3.13;;;;;;;;;;5038372;28;20400;-80
2024/03/31 10:47:30;;;;;;;14.10;3.25;;;;;;;;;;5038042;28;20078;-80
2024/03/31 10:50:00;;;;;;;7.70;2.67;;;;;;;;;;5020394;28;20411;-80
2024/03/31 10:52:27;;;;;;;14.77;3.15;;;;;;;;;;5022575;28;20087;-79
2024/03/31 10:54:56;;;;;;;11.48;3.03;;;;;;;;;;5044965;28;20021;-79
2024/03/31 10:57:23;;;;;;;11.75;2.70;;;;;;;;;;5043257;28;20022;-79
2024/03/31 10:59:49;;;;;;;19.50;3.30;;;;;;;;;;5032428;28;20116;-79
2024/03/31 11:02:17;;;;;;;9.23;2.78;;;;;;;;;;5038227;28;20025;-79
2024/03/31 11:04:43;;;;;;;10.52;2.55;;;;;;;;;;5030339;28;20037;-79
2024/03/31 11:07:14;;;;;;;10.57;2.85;;;;;;;;;;5008159;28;20080;-80
2024/03/31 11:09:41;;;;;;;5.18;1.98;;;;;;;;;;5028465;28;20045;-79
2024/03/31 11:12:08;;;;;;;16.42;3.42;;;;;;;;;;5029662;28;20028;-79
2024/03/31 11:14:34;;;;;;;15.95;4.05;;;;;;;;;;5036706;28;20018;-78
2024/03/31 11:17:01;;;;;;;18.23;3.65;;;;;;;;;;5025758;28;20085;-78
2024/03/31 11:19:27;;;;;;;8.40;2.42;;;;;;;;;;5042026;28;20013;-79
2024/03/31 11:22:01;;;;;;;19.67;3.70;;;;;;;;;;5033285;28;20036;-78
2024/03/31 11:24:27;;;;;;;16.27;3.20;;;;;;;;;;5032890;28;20029;-78
2024/03/31 11:26:55;;;;;;;27.27;4.30;;;;;;;;;;5055125;28;20042;-79
2024/03/31 11:29:22;;;;;;;18.38;3.75;;;;;;;;;;5038712;28;20064;-78
2024/03/31 11:31:52;;;;;;;22.60;4.38;;;;;;;;;;5033329;28;20072;-79
2024/03/31 11:34:18;;;;;;;20.00;5.03;;;;;;;;;;5050763;28;20049;-77
2024/03/31 11:36:45;;;;;;;15.85;3.65;;;;;;;;;;5047096;28;20018;-79
2024/03/31 11:39:14;;;;;;;18.50;3.72;;;;;;;;;;5043463;28;20037;-79
2024/03/31 11:41:41;;;;;;;22.52;3.00;;;;;;;;;;5012201;28;20052;-79
2024/03/31 11:44:07;;;;;;;13.43;3.15;;;;;;;;;;5038547;28;20029;-79
2024/03/31 11:46:35;;;;;;;10.88;2.60;;;;;;;;;;5028974;28;20029;-80
2024/03/31 11:49:02;;;;;;;8.43;2.65;;;;;;;;;;5036307;28;20040;-80
2024/03/31 11:51:30;;;;;;;22.92;4.18;;;;;;;;;;5039080;28;20413;-79
2024/03/31 11:53:56;;;;;;;11.07;2.75;;;;;;;;;;5012783;28;20060;-79
2024/03/31 11:56:22;;;;;;;15.02;3.13;;;;;;;;;;5031439;28;20081;-79
2024/03/31 11:58:49;;;;;;;23.40;3.83;;;;;;;;;;5038498;28;20118;-78
2024/03/31 12:01:23;;;;;;;19.95;3.83;;;;;;;;;;5022081;28;20112;-79
2024/03/31 12:03:58;;;;;;;19.17;3.95;;;;;;;;;;5015050;28;20033;-78
2024/03/31 12:06:25;;;;;;;15.52;3.47;;;;;;;;;;5034975;28;20076;-79
2024/03/31 12:08:53;;;;;;;24.42;3.67;;;;;;;;;;5041920;28;20067;-79
2024/03/31 12:11:19;;;;;;;17.77;3.33;;;;;;;;;;5026075;28;20105;-79
2024/03/31 12:13:49;;;;;;;15.85;3.83;;;;;;;;;;5034942;28;20039;-79
2024/03/31 12:16:19;;;;;;;14.32;3.42;;;;;;;;;;5015906;28;20571;-80
2024/03/31 12:18:46;;;;;;;30.13;4.43;;;;;;;;;;5015763;28;20146;-80
2024/03/31 12:21:12;;;;;;;23.20;4.65;;;;;;;;;;5037717;28;20030;-80
2024/03/31 12:23:38;;;;;;;23.55;4.38;;;;;;;;;;5024495;28;20113;-80
2024/03/31 12:26:04;;;;;;;11.43;2.92;;;;;;;;;;5024891;28;20369;-79
2024/03/31 12:28:31;;;;;;;9.25;2.58;;;;;;;;;;5042855;28;20077;-80
2024/03/31 12:30:57;;;;;;;19.63;3.88;;;;;;;;;;5016739;28;20460;-79
2024/03/31 12:33:23;;;;;;;13.95;2.58;;;;;;;;;;5018604;28;20045;-80
2024/03/31 12:35:50;;;;;;;10.30;1.73;;;;;;;;;;5024787;28;20104;-79
2024/03/31 12:38:16;;;;;;;12.52;3.10;;;;;;;;;;5042948;28;20354;-80
2024/03/31 12:40:42;;;;;;;14.00;2.72;;;;;;;;;;5016234;28;20117;-79
2024/03/31 12:43:09;;;;;;;7.72;2.67;;;;;;;;;;5030855;28;20018;-79
2024/03/31 12:45:35;;;;;;;13.88;3.45;;;;;;;;;;5040600;28;20017;-80
2024/03/31 12:48:02;;;;;;;10.10;3.05;;;;;;;;;;5042215;28;20100;-80
2024/03/31 12:50:29;;;;;;;20.15;3.30;;;;;;;;;;5024933;28;20028;-80
2024/03/31 12:53:08;;;;;;;12.85;3.47;;;;;;;;;;5025161;28;20044;-81
2024/03/31 12:55:37;;;;;;;13.30;2.97;;;;;;;;;;5043288;28;20060;-80
2024/03/31 12:58:04;;;;;;;17.00;3.17;;;;;;;;;;5025743;28;20064;-80
2024/03/31 13:00:31;;;;;;;19.98;2.92;;;;;;;;;;5043996;28;20049;-79
2024/03/31 13:02:57;;;;;;;13.48;2.72;;;;;;;;;;5043494;28;20049;-80
2024/03/31 13:05:25;;;;;;;12.93;3.33;;;;;;;;;;5035175;28;20009;-81
2024/03/31 13:07:54;;;;;;;13.13;2.58;;;;;;;;;;5024559;28;20017;-81
2024/03/31 13:10:20;;;;;;;8.65;1.85;;;;;;;;;;5022819;28;20488;-80
2024/03/31 13:12:48;;;;;;;6.00;1.73;;;;;;;;;;5022909;28;20029;-80
2024/03/31 13:15:15;;;;;;;7.60;1.90;;;;;;;;;;5021240;28;20188;-79
2024/03/31 13:17:41;;;;;;;6.13;1.40;;;;;;;;;;5023171;28;20026;-80
2024/03/31 13:20:08;;;;;;;11.35;1.67;;;;;;;;;;5039961;28;20093;-80
2024/03/31 13:22:35;;;;;;;5.97;1.48;;;;;;;;;;5031357;28;20029;-79
2024/03/31 13:25:03;;;;;;;4.13;1.30;;;;;;;;;;5024956;28;20021;-80
2024/03/31 13:27:30;;;;;;;6.72;1.50;;;;;;;;;;5044824;28;20028;-80
2024/03/31 13:29:56;;;;;;;5.85;1.10;;;;;;;;;;5045559;28;20045;-79
2024/03/31 13:32:22;;;;;;;5.38;1.50;;;;;;;;;;5047607;28;20021;-79
2024/03/31 13:34:49;;;;;;;5.57;1.98;;;;;;;;;;5037949;28;20075;-80
2024/03/31 13:37:15;;;;;;;6.88;1.88;;;;;;;;;;5042826;28;20056;-79
2024/03/31 13:39:41;;;;;;;5.22;1.60;;;;;;;;;;5040745;28;20397;-80
2024/03/31 13:42:07;;;;;;;5.63;1.85;;;;;;;;;;5030764;28;20471;-79
2024/03/31 13:44:33;;;;;;;7.80;1.98;;;;;;;;;;5029920;28;20025;-79
2024/03/31 13:46:59;;;;;;;6.70;1.88;;;;;;;;;;5041189;28;20049;-80
2024/03/31 13:49:26;;;;;;;12.27;2.70;;;;;;;;;;5024047;28;20018;-81
2024/03/31 13:51:52;;;;;;;9.85;2.85;;;;;;;;;;5039287;28;20085;-81
2024/03/31 13:54:18;;;;;;;8.60;2.40;;;;;;;;;;5037951;28;20089;-79
2024/03/31 13:56:44;;;;;;;5.72;1.52;;;;;;;;;;5052960;28;20025;-81
2024/03/31 13:59:10;;;;;;;5.03;1.75;;;;;;;;;;5042999;28;20100;-80
2024/03/31 14:01:36;;;;;;;3.05;1.30;;;;;;;;;;5029365;28;20100;-80
2024/03/31 14:04:03;;;;;;;6.05;1.38;;;;;;;;;;5040380;28;20048;-80
2024/03/31 14:06:29;;;;;;;10.98;2.20;;;;;;;;;;5014868;28;20014;-79
2024/03/31 14:08:55;;;;;;;6.80;1.75;;;;;;;;;;5031202;28;20144;-79
2024/03/31 14:11:21;;;;;;;4.43;1.75;;;;;;;;;;5022608;28;20112;-80
2024/03/31 14:13:48;;;;;;;5.85;2.13;;;;;;;;;;5040883;28;20025;-80
2024/03/31 14:16:14;;;;;;;3.58;1.45;;;;;;;;;;5041241;28;20018;-80
2024/03/31 14:18:40;;;;;;;2.95;0.95;;;;;;;;;;5053119;28;20151;-80
2024/03/31 14:21:07;;;;;;;2.30;1.20;;;;;;;;;;5037120;28;20026;-79
2024/03/31 14:23:33;;;;;;;2.55;0.80;;;;;;;;;;5033860;28;20029;-80
2024/03/31 14:25:59;;;;;;;4.25;1.05;;;;;;;;;;5034206;28;20064;-81
2024/03/31 14:28:25;;;;;;;2.85;1.20;;;;;;;;;;5047401;28;20005;-80
2024/03/31 14:30:54;;;;;;;1.02;0.85;;;;;;;;;;5055770;28;20025;-79
2024/03/31 14:33:20;;;;;;;1.13;0.63;;;;;;;;;;5033216;28;20247;-80
2024/03/31 14:35:47;;;;;;;4.70;0.98;;;;;;;;;;5032556;28;20049;-83